Koyo Maru — JI3710 — position and weather

sailwx.info

Track history (hours):
 
Tides and Currents Weather Stations Pressure Air Temp Water Temp Dewpoint Dewpoint Depression Visibility Wind Speed Wind Dir Waves Ship Positions

Koyo Maru

Last reported at 2017-Apr-24 20:59 UTC. Time now 2017-Apr-24 21:09 UTC.
Position N 34°35' E 135°17'.

Length 125 m; draft 6 m.

Type: Cargo ship. MMSI: 431401953.

Date/timePositionNaut miles runAvg speedWind from/ knotsBaromVisibWave heightAir tempDewpointWater temp
2017-Apr-24 20:59N 34°35' E 135°17'0 0.0
2017-Apr-24 20:23N 34°35' E 135°17'0 0.0
2017-Apr-24 19:53N 34°35' E 135°17'0 0.0
2017-Apr-24 19:29N 34°35' E 135°17'0 0.0
2017-Apr-24 18:53N 34°35' E 135°17'0 0.0
2017-Apr-24 18:11N 34°35' E 135°17'0 0.0
2017-Apr-24 17:47N 34°35' E 135°17'0 0.2
2017-Apr-24 17:29N 34°35' E 135°17'0 0.0
2017-Apr-24 16:53N 34°35' E 135°17'0 0.0
2017-Apr-24 16:11N 34°35' E 135°17'0 0.0
2017-Apr-24 15:59N 34°35' E 135°17'0 0.0
2017-Apr-24 15:29N 34°35' E 135°17'0 0.1
2017-Apr-24 14:59N 34°35' E 135°17'0 0.1
2017-Apr-24 14:29N 34°35' E 135°17'0 0.4
2017-Apr-24 13:31N 34°35' E 135°17'917.1
2017-Apr-24 13:01N 34°35' E 135°07'1016.2
2017-Apr-24 12:25N 34°36' E 134°55'  
2017-Apr-18 11:37N 34°01' E 134°60'217.6
2017-Apr-18 11:30N 34°03' E 134°60'918.1
2017-Apr-18 11:00N 34°12' E 134°59'1017.6
2017-Apr-18 10:25N 34°22' E 135°02'819.0
2017-Apr-18 10:00N 34°27' E 135°09'918.2
2017-Apr-18 09:31N 34°32' E 135°18'713.6
2017-Apr-18 09:01N 34°36' E 135°25'1 1.5
2017-Apr-18 08:26N 34°35' E 135°26'0 0.0
2017-Apr-18 07:56N 34°35' E 135°26'0 0.0
2017-Apr-18 07:26N 34°35' E 135°26'0 0.0
2017-Apr-18 06:56N 34°35' E 135°26'0 0.0
2017-Apr-18 05:44N 34°35' E 135°26'0 0.0
2017-Apr-18 05:14N 34°35' E 135°26'0 0.0
2017-Apr-18 04:56N 34°35' E 135°26'0 0.0
2017-Apr-18 04:26N 34°35' E 135°26'0 0.0
2017-Apr-18 03:56N 34°35' E 135°26'0 0.0
2017-Apr-18 03:20N 34°35' E 135°26'0 0.0
2017-Apr-18 02:56N 34°35' E 135°26'0 0.0
2017-Apr-18 02:26N 34°35' E 135°26'0 0.0
2017-Apr-18 01:50N 34°35' E 135°26'0 0.0
2017-Apr-18 01:20N 34°35' E 135°26'0 0.0
2017-Apr-18 00:56N 34°35' E 135°26'0 0.0
2017-Apr-18 00:20N 34°35' E 135°26'0 0.0
2017-Apr-17 23:56N 34°35' E 135°26'0 0.0
2017-Apr-17 23:20N 34°35' E 135°26'0 0.0
2017-Apr-17 22:56N 34°35' E 135°26'0 0.0
2017-Apr-17 22:30N 34°35' E 135°26'2 3.1
2017-Apr-17 22:00N 34°36' E 135°24'511.1
2017-Apr-17 21:30N 34°35' E 135°18'1 1.1
2017-Apr-17 20:56N 34°34' E 135°17'0 0.1
2017-Apr-17 20:21N 34°34' E 135°17'0 0.1
2017-Apr-17 19:56N 34°34' E 135°17'0 0.0
2017-Apr-17 19:30N 34°34' E 135°17'4 7.6
2017-Apr-17 19:00N 34°34' E 135°13'917.2
2017-Apr-17 18:30N 34°36' E 135°03'  
2017-Apr-15 06:14N 34°54' E 139°25'416.3
2017-Apr-15 06:00N 34°56' E 139°28'815.9
2017-Apr-15 05:30N 35°02' E 139°36'816.5
2017-Apr-15 05:00N 35°07' E 139°43'815.0
2017-Apr-15 04:30N 35°14' E 139°46'612.0
2017-Apr-15 04:00N 35°19' E 139°43'714.7
2017-Apr-15 03:30N 35°26' E 139°46'815.1
2017-Apr-15 03:00N 35°33' E 139°50'612.3
2017-Apr-15 02:31N 35°38' E 139°46'0 0.2
2017-Apr-15 01:49N 35°38' E 139°46'0 0.0
2017-Apr-15 01:28N 35°38' E 139°46'0 0.0
2017-Apr-15 00:58N 35°38' E 139°46'0 0.0
2017-Apr-15 00:28N 35°38' E 139°46'0 0.0
2017-Apr-14 23:58N 35°38' E 139°46'0 0.0
2017-Apr-14 23:28N 35°38' E 139°46'0 0.0
2017-Apr-14 22:58N 35°38' E 139°46'0 0.2
2017-Apr-14 22:30N 35°38' E 139°46'510.0
2017-Apr-14 22:00N 35°34' E 139°50'915.3
2017-Apr-14 21:24N 35°34' E 140°01'  
Track history (hours):
 
Tides and Currents Weather Stations Pressure Air Temp Water Temp Dewpoint Dewpoint Depression Visibility Wind Speed Wind Dir Waves Ship Positions

Koyo Maru

Last reported at 2017-Apr-24 20:59 UTC. Time now 2017-Apr-24 21:09 UTC.
Position N 34°35' E 135°17'.

Length 125 m; draft 6 m.

Type: Cargo ship. MMSI: 431401953.

Date/timePositionNaut miles runAvg speedWind from/ knotsBaromVisibWave heightAir tempDewpointWater temp
2017-Apr-24 20:59N 34°35' E 135°17'0 0.0
2017-Apr-24 20:23N 34°35' E 135°17'0 0.0
2017-Apr-24 19:53N 34°35' E 135°17'0 0.0
2017-Apr-24 19:29N 34°35' E 135°17'0 0.0
2017-Apr-24 18:53N 34°35' E 135°17'0 0.0
2017-Apr-24 18:11N 34°35' E 135°17'0 0.0
2017-Apr-24 17:47N 34°35' E 135°17'0 0.2
2017-Apr-24 17:29N 34°35' E 135°17'0 0.0
2017-Apr-24 16:53N 34°35' E 135°17'0 0.0
2017-Apr-24 16:11N 34°35' E 135°17'0 0.0
2017-Apr-24 15:59N 34°35' E 135°17'0 0.0
2017-Apr-24 15:29N 34°35' E 135°17'0 0.1
2017-Apr-24 14:59N 34°35' E 135°17'0 0.1
2017-Apr-24 14:29N 34°35' E 135°17'0 0.4
2017-Apr-24 13:31N 34°35' E 135°17'917.1
2017-Apr-24 13:01N 34°35' E 135°07'1016.2
2017-Apr-24 12:25N 34°36' E 134°55'  
2017-Apr-18 11:37N 34°01' E 134°60'217.6
2017-Apr-18 11:30N 34°03' E 134°60'918.1
2017-Apr-18 11:00N 34°12' E 134°59'1017.6
2017-Apr-18 10:25N 34°22' E 135°02'819.0
2017-Apr-18 10:00N 34°27' E 135°09'918.2
2017-Apr-18 09:31N 34°32' E 135°18'713.6
2017-Apr-18 09:01N 34°36' E 135°25'1 1.5
2017-Apr-18 08:26N 34°35' E 135°26'0 0.0
2017-Apr-18 07:56N 34°35' E 135°26'0 0.0
2017-Apr-18 07:26N 34°35' E 135°26'0 0.0
2017-Apr-18 06:56N 34°35' E 135°26'0 0.0
2017-Apr-18 05:44N 34°35' E 135°26'0 0.0
2017-Apr-18 05:14N 34°35' E 135°26'0 0.0
2017-Apr-18 04:56N 34°35' E 135°26'0 0.0
2017-Apr-18 04:26N 34°35' E 135°26'0 0.0
2017-Apr-18 03:56N 34°35' E 135°26'0 0.0
2017-Apr-18 03:20N 34°35' E 135°26'0 0.0
2017-Apr-18 02:56N 34°35' E 135°26'0 0.0
2017-Apr-18 02:26N 34°35' E 135°26'0 0.0
2017-Apr-18 01:50N 34°35' E 135°26'0 0.0
2017-Apr-18 01:20N 34°35' E 135°26'0 0.0
2017-Apr-18 00:56N 34°35' E 135°26'0 0.0
2017-Apr-18 00:20N 34°35' E 135°26'0 0.0
2017-Apr-17 23:56N 34°35' E 135°26'0 0.0
2017-Apr-17 23:20N 34°35' E 135°26'0 0.0
2017-Apr-17 22:56N 34°35' E 135°26'0 0.0
2017-Apr-17 22:30N 34°35' E 135°26'2 3.1
2017-Apr-17 22:00N 34°36' E 135°24'511.1
2017-Apr-17 21:30N 34°35' E 135°18'1 1.1
2017-Apr-17 20:56N 34°34' E 135°17'0 0.1
2017-Apr-17 20:21N 34°34' E 135°17'0 0.1
2017-Apr-17 19:56N 34°34' E 135°17'0 0.0
2017-Apr-17 19:30N 34°34' E 135°17'4 7.6
2017-Apr-17 19:00N 34°34' E 135°13'917.2
2017-Apr-17 18:30N 34°36' E 135°03'  
2017-Apr-15 06:14N 34°54' E 139°25'416.3
2017-Apr-15 06:00N 34°56' E 139°28'815.9
2017-Apr-15 05:30N 35°02' E 139°36'816.5
2017-Apr-15 05:00N 35°07' E 139°43'815.0
2017-Apr-15 04:30N 35°14' E 139°46'612.0
2017-Apr-15 04:00N 35°19' E 139°43'714.7
2017-Apr-15 03:30N 35°26' E 139°46'815.1
2017-Apr-15 03:00N 35°33' E 139°50'612.3
2017-Apr-15 02:31N 35°38' E 139°46'0 0.2
2017-Apr-15 01:49N 35°38' E 139°46'0 0.0
2017-Apr-15 01:28N 35°38' E 139°46'0 0.0
2017-Apr-15 00:58N 35°38' E 139°46'0 0.0
2017-Apr-15 00:28N 35°38' E 139°46'0 0.0
2017-Apr-14 23:58N 35°38' E 139°46'0 0.0
2017-Apr-14 23:28N 35°38' E 139°46'0 0.0
2017-Apr-14 22:58N 35°38' E 139°46'0 0.2
2017-Apr-14 22:30N 35°38' E 139°46'510.0
2017-Apr-14 22:00N 35°34' E 139°50'915.3
2017-Apr-14 21:24N 35°34' E 140°01'  

Dump ship's entire track history